sensor_id;sensor_type;location;lat;lon;timestamp;pressure;altitude;pressure_sealevel;temperature
65290;BMP180;51893;59.754;10.110;2022-12-07T00:01:42;101313.20;;;-2.20
65290;BMP180;51893;59.754;10.110;2022-12-07T00:04:16;101312.20;;;-2.20
65290;BMP180;51893;59.754;10.110;2022-12-07T00:06:46;101314.60;;;-2.20
65290;BMP180;51893;59.754;10.110;2022-12-07T00:09:16;101318.20;;;-2.10
65290;BMP180;51893;59.754;10.110;2022-12-07T00:11:45;101310.80;;;-2.12
65290;BMP180;51893;59.754;10.110;2022-12-07T00:14:16;101313.20;;;-2.20
65290;BMP180;51893;59.754;10.110;2022-12-07T00:16:44;101315.40;;;-2.20
65290;BMP180;51893;59.754;10.110;2022-12-07T00:19:13;101318.20;;;-2.28
65290;BMP180;51893;59.754;10.110;2022-12-07T00:21:41;101323.00;;;-2.28
65290;BMP180;51893;59.754;10.110;2022-12-07T00:24:10;101320.80;;;-2.20
65290;BMP180;51893;59.754;10.110;2022-12-07T00:26:40;101319.60;;;-2.20
65290;BMP180;51893;59.754;10.110;2022-12-07T00:29:21;101323.40;;;-2.20
65290;BMP180;51893;59.754;10.110;2022-12-07T00:31:50;101322.60;;;-2.20
65290;BMP180;51893;59.754;10.110;2022-12-07T00:34:21;101327.80;;;-2.30
65290;BMP180;51893;59.754;10.110;2022-12-07T00:36:49;101328.60;;;-2.38
65290;BMP180;51893;59.754;10.110;2022-12-07T00:39:16;101324.80;;;-2.40
65290;BMP180;51893;59.754;10.110;2022-12-07T00:41:43;101321.00;;;-2.40
65290;BMP180;51893;59.754;10.110;2022-12-07T00:44:12;101324.20;;;-2.40
65290;BMP180;51893;59.754;10.110;2022-12-07T00:46:39;101324.00;;;-2.50
65290;BMP180;51893;59.754;10.110;2022-12-07T00:49:06;101316.20;;;-2.50
65290;BMP180;51893;59.754;10.110;2022-12-07T00:51:32;101324.20;;;-2.50
65290;BMP180;51893;59.754;10.110;2022-12-07T00:53:59;101330.40;;;-2.50
65290;BMP180;51893;59.754;10.110;2022-12-07T00:56:28;101326.20;;;-2.40
65290;BMP180;51893;59.754;10.110;2022-12-07T00:59:03;101327.00;;;-2.40
65290;BMP180;51893;59.754;10.110;2022-12-07T01:01:35;101325.80;;;-2.40
65290;BMP180;51893;59.754;10.110;2022-12-07T01:04:03;101324.60;;;-2.40
65290;BMP180;51893;59.754;10.110;2022-12-07T01:06:30;101330.60;;;-2.42
65290;BMP180;51893;59.754;10.110;2022-12-07T01:08:58;101337.60;;;-2.46
65290;BMP180;51893;59.754;10.110;2022-12-07T01:11:29;101333.40;;;-2.40
65290;BMP180;51893;59.754;10.110;2022-12-07T01:13:58;101339.40;;;-2.40
65290;BMP180;51893;59.754;10.110;2022-12-07T01:16:27;101340.00;;;-2.30
65290;BMP180;51893;59.754;10.110;2022-12-07T01:18:57;101344.60;;;-2.20
65290;BMP180;51893;59.754;10.110;2022-12-07T01:21:28;101341.00;;;-2.20
65290;BMP180;51893;59.754;10.110;2022-12-07T01:23:57;101337.60;;;-2.10
65290;BMP180;51893;59.754;10.110;2022-12-07T01:26:25;101341.40;;;-2.10
65290;BMP180;51893;59.754;10.110;2022-12-07T01:28:52;101334.60;;;-2.20
65290;BMP180;51893;59.754;10.110;2022-12-07T01:31:23;101344.20;;;-2.28
65290;BMP180;51893;59.754;10.110;2022-12-07T01:33:55;101333.40;;;-2.30
65290;BMP180;51893;59.754;10.110;2022-12-07T01:36:26;101329.60;;;-2.30
65290;BMP180;51893;59.754;10.110;2022-12-07T01:39:00;101322.80;;;-2.30
65290;BMP180;51893;59.754;10.110;2022-12-07T01:41:32;101319.20;;;-2.30
65290;BMP180;51893;59.754;10.110;2022-12-07T01:44:25;101318.60;;;-2.20
65290;BMP180;51893;59.754;10.110;2022-12-07T01:47:03;101315.40;;;-2.22
65290;BMP180;51893;59.754;10.110;2022-12-07T01:49:42;101311.20;;;-2.30
65290;BMP180;51893;59.754;10.110;2022-12-07T01:52:30;101314.00;;;-2.30
65290;BMP180;51893;59.754;10.110;2022-12-07T01:55:04;101308.00;;;-2.40
65290;BMP180;51893;59.754;10.110;2022-12-07T01:57:38;101315.80;;;-2.48
65290;BMP180;51893;59.754;10.110;2022-12-07T02:00:12;101311.80;;;-2.50
65290;BMP180;51893;59.754;10.110;2022-12-07T02:02:48;101317.00;;;-2.52
65290;BMP180;51893;59.754;10.110;2022-12-07T02:05:18;101311.20;;;-2.60
65290;BMP180;51893;59.754;10.110;2022-12-07T02:07:47;101315.00;;;-2.64
65290;BMP180;51893;59.754;10.110;2022-12-07T02:10:22;101314.60;;;-2.70
65290;BMP180;51893;59.754;10.110;2022-12-07T02:13:02;101318.40;;;-2.80
65290;BMP180;51893;59.754;10.110;2022-12-07T02:22:01;101319.80;;;-2.72
65290;BMP180;51893;59.754;10.110;2022-12-07T02:24:54;101314.00;;;-2.80
65290;BMP180;51893;59.754;10.110;2022-12-07T02:27:47;101316.60;;;-2.80
65290;BMP180;51893;59.754;10.110;2022-12-07T02:30:21;101316.60;;;-2.80
65290;BMP180;51893;59.754;10.110;2022-12-07T02:33:07;101303.00;;;-2.90
65290;BMP180;51893;59.754;10.110;2022-12-07T02:36:06;101302.80;;;-3.00
65290;BMP180;51893;59.754;10.110;2022-12-07T02:39:06;101306.40;;;-3.00
65290;BMP180;51893;59.754;10.110;2022-12-07T02:42:00;101304.00;;;-3.00
65290;BMP180;51893;59.754;10.110;2022-12-07T02:44:30;101303.60;;;-3.00
65290;BMP180;51893;59.754;10.110;2022-12-07T02:47:04;101302.20;;;-3.10
65290;BMP180;51893;59.754;10.110;2022-12-07T02:49:32;101299.00;;;-3.06
65290;BMP180;51893;59.754;10.110;2022-12-07T02:51:58;101294.40;;;-3.10
65290;BMP180;51893;59.754;10.110;2022-12-07T02:54:25;101294.00;;;-3.10
65290;BMP180;51893;59.754;10.110;2022-12-07T03:10:42;101291.80;;;-3.10
65290;BMP180;51893;59.754;10.110;2022-12-07T03:18:38;101272.80;;;-3.30
65290;BMP180;51893;59.754;10.110;2022-12-07T03:21:14;101273.80;;;-3.38
65290;BMP180;51893;59.754;10.110;2022-12-07T03:23:49;101266.80;;;-3.40
65290;BMP180;51893;59.754;10.110;2022-12-07T03:26:19;101266.80;;;-3.40
65290;BMP180;51893;59.754;10.110;2022-12-07T03:28:54;101260.80;;;-3.40
65290;BMP180;51893;59.754;10.110;2022-12-07T03:31:29;101264.40;;;-3.40
65290;BMP180;51893;59.754;10.110;2022-12-07T03:34:21;101257.40;;;-3.40
65290;BMP180;51893;59.754;10.110;2022-12-07T03:37:05;101255.00;;;-3.44
65290;BMP180;51893;59.754;10.110;2022-12-07T03:39:43;101260.80;;;-3.50
65290;BMP180;51893;59.754;10.110;2022-12-07T03:42:11;101262.80;;;-3.50
65290;BMP180;51893;59.754;10.110;2022-12-07T03:44:38;101266.60;;;-3.40
65290;BMP180;51893;59.754;10.110;2022-12-07T03:47:26;101257.00;;;-3.40
65290;BMP180;51893;59.754;10.110;2022-12-07T03:53:23;101257.80;;;-3.50
65290;BMP180;51893;59.754;10.110;2022-12-07T03:55:52;101256.40;;;-3.50
65290;BMP180;51893;59.754;10.110;2022-12-07T03:58:21;101263.20;;;-3.60
65290;BMP180;51893;59.754;10.110;2022-12-07T04:00:50;101265.60;;;-3.70
65290;BMP180;51893;59.754;10.110;2022-12-07T04:03:17;101268.80;;;-3.70
65290;BMP180;51893;59.754;10.110;2022-12-07T04:05:45;101276.20;;;-3.80
65290;BMP180;51893;59.754;10.110;2022-12-07T04:08:11;101271.40;;;-3.80
65290;BMP180;51893;59.754;10.110;2022-12-07T04:10:38;101273.40;;;-3.80
65290;BMP180;51893;59.754;10.110;2022-12-07T04:13:05;101279.80;;;-3.80
65290;BMP180;51893;59.754;10.110;2022-12-07T04:15:31;101279.00;;;-3.80
65290;BMP180;51893;59.754;10.110;2022-12-07T04:17:58;101273.00;;;-3.70
65290;BMP180;51893;59.754;10.110;2022-12-07T04:20:25;101276.60;;;-3.70
65290;BMP180;51893;59.754;10.110;2022-12-07T04:22:51;101273.80;;;-3.74
65290;BMP180;51893;59.754;10.110;2022-12-07T04:25:18;101270.80;;;-3.80
65290;BMP180;51893;59.754;10.110;2022-12-07T04:27:45;101271.80;;;-3.84
65290;BMP180;51893;59.754;10.110;2022-12-07T04:30:12;101269.40;;;-3.84
65290;BMP180;51893;59.754;10.110;2022-12-07T04:32:38;101263.80;;;-3.80
65290;BMP180;51893;59.754;10.110;2022-12-07T04:35:07;101265.60;;;-3.80
65290;BMP180;51893;59.754;10.110;2022-12-07T04:37:33;101258.40;;;-3.80
65290;BMP180;51893;59.754;10.110;2022-12-07T04:40:00;101251.60;;;-3.76
65290;BMP180;51893;59.754;10.110;2022-12-07T04:42:27;101247.60;;;-3.70
65290;BMP180;51893;59.754;10.110;2022-12-07T04:44:54;101248.20;;;-3.80
65290;BMP180;51893;59.754;10.110;2022-12-07T04:47:20;101242.60;;;-3.80
65290;BMP180;51893;59.754;10.110;2022-12-07T04:49:47;101236.20;;;-3.80
65290;BMP180;51893;59.754;10.110;2022-12-07T04:52:13;101234.60;;;-3.80
65290;BMP180;51893;59.754;10.110;2022-12-07T04:54:40;101228.40;;;-3.80
65290;BMP180;51893;59.754;10.110;2022-12-07T04:57:06;101227.00;;;-3.72
65290;BMP180;51893;59.754;10.110;2022-12-07T04:59:33;101220.40;;;-3.72
65290;BMP180;51893;59.754;10.110;2022-12-07T05:01:59;101223.00;;;-3.80
65290;BMP180;51893;59.754;10.110;2022-12-07T05:04:26;101224.20;;;-3.80
65290;BMP180;51893;59.754;10.110;2022-12-07T05:06:52;101220.40;;;-3.90
65290;BMP180;51893;59.754;10.110;2022-12-07T05:09:19;101225.40;;;-3.90
65290;BMP180;51893;59.754;10.110;2022-12-07T05:11:45;101221.60;;;-3.92
65290;BMP180;51893;59.754;10.110;2022-12-07T05:14:19;101221.80;;;-4.00
65290;BMP180;51893;59.754;10.110;2022-12-07T05:16:49;101224.40;;;-4.00
65290;BMP180;51893;59.754;10.110;2022-12-07T05:19:18;101224.80;;;-4.00
65290;BMP180;51893;59.754;10.110;2022-12-07T05:21:46;101225.80;;;-4.10
65290;BMP180;51893;59.754;10.110;2022-12-07T05:24:15;101225.20;;;-4.08
65290;BMP180;51893;59.754;10.110;2022-12-07T05:26:42;101226.20;;;-4.10
65290;BMP180;51893;59.754;10.110;2022-12-07T05:29:15;101229.40;;;-4.10
65290;BMP180;51893;59.754;10.110;2022-12-07T05:31:44;101222.40;;;-4.16
65290;BMP180;51893;59.754;10.110;2022-12-07T05:34:11;101220.60;;;-4.16
65290;BMP180;51893;59.754;10.110;2022-12-07T05:36:38;101222.40;;;-4.20
65290;BMP180;51893;59.754;10.110;2022-12-07T05:39:05;101222.80;;;-4.30
65290;BMP180;51893;59.754;10.110;2022-12-07T05:41:32;101223.80;;;-4.40
65290;BMP180;51893;59.754;10.110;2022-12-07T05:44:17;101224.00;;;-4.40
65290;BMP180;51893;59.754;10.110;2022-12-07T05:46:43;101219.40;;;-4.50
65290;BMP180;51893;59.754;10.110;2022-12-07T05:49:10;101219.00;;;-4.50
65290;BMP180;51893;59.754;10.110;2022-12-07T05:51:36;101222.80;;;-4.50
65290;BMP180;51893;59.754;10.110;2022-12-07T05:54:03;101219.20;;;-4.50
65290;BMP180;51893;59.754;10.110;2022-12-07T05:56:29;101219.40;;;-4.50
65290;BMP180;51893;59.754;10.110;2022-12-07T05:58:56;101218.00;;;-4.50
65290;BMP180;51893;59.754;10.110;2022-12-07T06:01:41;101218.60;;;-4.58
65290;BMP180;51893;59.754;10.110;2022-12-07T06:04:08;101213.00;;;-4.60
65290;BMP180;51893;59.754;10.110;2022-12-07T06:06:34;101216.60;;;-4.52
65290;BMP180;51893;59.754;10.110;2022-12-07T06:09:02;101214.20;;;-4.50
65290;BMP180;51893;59.754;10.110;2022-12-07T06:11:29;101205.80;;;-4.58
65290;BMP180;51893;59.754;10.110;2022-12-07T06:14:14;101207.20;;;-4.60
65290;BMP180;51893;59.754;10.110;2022-12-07T06:16:41;101208.00;;;-4.70
65290;BMP180;51893;59.754;10.110;2022-12-07T06:19:08;101205.00;;;-4.60
65290;BMP180;51893;59.754;10.110;2022-12-07T06:21:35;101211.00;;;-4.60
65290;BMP180;51893;59.754;10.110;2022-12-07T06:24:01;101212.00;;;-4.60
65290;BMP180;51893;59.754;10.110;2022-12-07T06:26:28;101213.60;;;-4.60
65290;BMP180;51893;59.754;10.110;2022-12-07T06:28:54;101217.00;;;-4.60
65290;BMP180;51893;59.754;10.110;2022-12-07T06:31:21;101220.00;;;-4.52
65290;BMP180;51893;59.754;10.110;2022-12-07T06:33:48;101212.20;;;-4.50
65290;BMP180;51893;59.754;10.110;2022-12-07T06:36:15;101216.60;;;-4.50
65290;BMP180;51893;59.754;10.110;2022-12-07T06:38:42;101215.00;;;-4.60
65290;BMP180;51893;59.754;10.110;2022-12-07T06:41:08;101213.20;;;-4.60
65290;BMP180;51893;59.754;10.110;2022-12-07T06:43:35;101207.20;;;-4.60
65290;BMP180;51893;59.754;10.110;2022-12-07T06:46:01;101208.00;;;-4.70
65290;BMP180;51893;59.754;10.110;2022-12-07T06:48:28;101211.60;;;-4.74
65290;BMP180;51893;59.754;10.110;2022-12-07T06:50:56;101215.40;;;-4.80
65290;BMP180;51893;59.754;10.110;2022-12-07T06:53:25;101216.00;;;-4.80
65290;BMP180;51893;59.754;10.110;2022-12-07T06:55:52;101215.20;;;-4.88
65290;BMP180;51893;59.754;10.110;2022-12-07T06:58:18;101219.60;;;-5.00
65290;BMP180;51893;59.754;10.110;2022-12-07T07:00:45;101219.00;;;-5.10
65290;BMP180;51893;59.754;10.110;2022-12-07T07:03:12;101216.40;;;-5.10
65290;BMP180;51893;59.754;10.110;2022-12-07T07:05:39;101221.00;;;-5.12
65290;BMP180;51893;59.754;10.110;2022-12-07T07:08:06;101218.40;;;-5.10
65290;BMP180;51893;59.754;10.110;2022-12-07T07:10:49;101221.20;;;-5.10
65290;BMP180;51893;59.754;10.110;2022-12-07T07:13:16;101229.00;;;-5.10
65290;BMP180;51893;59.754;10.110;2022-12-07T07:15:43;101232.40;;;-5.10
65290;BMP180;51893;59.754;10.110;2022-12-07T07:18:10;101234.20;;;-5.10
65290;BMP180;51893;59.754;10.110;2022-12-07T07:20:38;101237.00;;;-5.20
65290;BMP180;51893;59.754;10.110;2022-12-07T07:23:06;101231.20;;;-5.30
65290;BMP180;51893;59.754;10.110;2022-12-07T07:25:34;101224.80;;;-5.32
65290;BMP180;51893;59.754;10.110;2022-12-07T07:28:00;101230.40;;;-5.40
65290;BMP180;51893;59.754;10.110;2022-12-07T07:30:28;101236.20;;;-5.42
65290;BMP180;51893;59.754;10.110;2022-12-07T07:33:02;101234.80;;;-5.50
65290;BMP180;51893;59.754;10.110;2022-12-07T07:35:32;101236.00;;;-5.60
65290;BMP180;51893;59.754;10.110;2022-12-07T07:37:59;101237.40;;;-5.60
65290;BMP180;51893;59.754;10.110;2022-12-07T07:40:27;101238.80;;;-5.68
65290;BMP180;51893;59.754;10.110;2022-12-07T07:42:55;101235.40;;;-5.70
65290;BMP180;51893;59.754;10.110;2022-12-07T07:45:25;101235.80;;;-5.70
65290;BMP180;51893;59.754;10.110;2022-12-07T07:47:52;101232.60;;;-5.70
65290;BMP180;51893;59.754;10.110;2022-12-07T07:50:20;101230.80;;;-5.70
65290;BMP180;51893;59.754;10.110;2022-12-07T07:52:48;101226.60;;;-5.80
65290;BMP180;51893;59.754;10.110;2022-12-07T07:55:14;101231.20;;;-5.82
65290;BMP180;51893;59.754;10.110;2022-12-07T07:57:45;101224.00;;;-5.80
65290;BMP180;51893;59.754;10.110;2022-12-07T08:00:21;101223.00;;;-5.74
65290;BMP180;51893;59.754;10.110;2022-12-07T08:02:48;101226.80;;;-5.70
65290;BMP180;51893;59.754;10.110;2022-12-07T08:05:14;101228.60;;;-5.70
65290;BMP180;51893;59.754;10.110;2022-12-07T08:07:41;101231.40;;;-5.70
65290;BMP180;51893;59.754;10.110;2022-12-07T08:10:12;101226.80;;;-5.70
65290;BMP180;51893;59.754;10.110;2022-12-07T08:12:40;101229.60;;;-5.70
65290;BMP180;51893;59.754;10.110;2022-12-07T08:15:30;101229.60;;;-5.68
65290;BMP180;51893;59.754;10.110;2022-12-07T08:17:58;101229.60;;;-5.60
65290;BMP180;51893;59.754;10.110;2022-12-07T08:20:25;101223.40;;;-5.60
65290;BMP180;51893;59.754;10.110;2022-12-07T08:22:52;101228.20;;;-5.60
65290;BMP180;51893;59.754;10.110;2022-12-07T08:25:22;101226.60;;;-5.56
65290;BMP180;51893;59.754;10.110;2022-12-07T08:27:49;101233.20;;;-5.50
65290;BMP180;51893;59.754;10.110;2022-12-07T08:30:17;101228.00;;;-5.50
65290;BMP180;51893;59.754;10.110;2022-12-07T08:32:45;101229.20;;;-5.50
65290;BMP180;51893;59.754;10.110;2022-12-07T08:35:13;101229.60;;;-5.50
65290;BMP180;51893;59.754;10.110;2022-12-07T08:37:41;101229.80;;;-5.50
65290;BMP180;51893;59.754;10.110;2022-12-07T08:40:10;101229.00;;;-5.60
65290;BMP180;51893;59.754;10.110;2022-12-07T08:42:36;101225.80;;;-5.60
65290;BMP180;51893;59.754;10.110;2022-12-07T08:45:11;101228.80;;;-5.60
65290;BMP180;51893;59.754;10.110;2022-12-07T08:48:01;101231.60;;;-5.60
65290;BMP180;51893;59.754;10.110;2022-12-07T08:50:31;101227.40;;;-5.60
65290;BMP180;51893;59.754;10.110;2022-12-07T08:52:59;101230.00;;;-5.68
65290;BMP180;51893;59.754;10.110;2022-12-07T08:55:28;101223.40;;;-5.64
65290;BMP180;51893;59.754;10.110;2022-12-07T08:57:58;101226.20;;;-5.70
65290;BMP180;51893;59.754;10.110;2022-12-07T09:00:26;101218.60;;;-5.70
65290;BMP180;51893;59.754;10.110;2022-12-07T09:02:53;101219.00;;;-5.70
65290;BMP180;51893;59.754;10.110;2022-12-07T09:05:20;101218.40;;;-5.70
65290;BMP180;51893;59.754;10.110;2022-12-07T09:07:54;101211.80;;;-5.70
65290;BMP180;51893;59.754;10.110;2022-12-07T09:10:21;101209.60;;;-5.70
65290;BMP180;51893;59.754;10.110;2022-12-07T09:12:51;101215.00;;;-5.70
65290;BMP180;51893;59.754;10.110;2022-12-07T09:15:18;101218.00;;;-5.70
65290;BMP180;51893;59.754;10.110;2022-12-07T09:17:45;101221.60;;;-5.70
65290;BMP180;51893;59.754;10.110;2022-12-07T09:20:12;101216.00;;;-5.70
65290;BMP180;51893;59.754;10.110;2022-12-07T09:22:39;101222.20;;;-5.60
65290;BMP180;51893;59.754;10.110;2022-12-07T09:25:06;101224.20;;;-5.50
65290;BMP180;51893;59.754;10.110;2022-12-07T09:27:32;101222.60;;;-5.46
65290;BMP180;51893;59.754;10.110;2022-12-07T09:29:59;101216.60;;;-5.40
65290;BMP180;51893;59.754;10.110;2022-12-07T09:32:26;101209.40;;;-5.40
65290;BMP180;51893;59.754;10.110;2022-12-07T09:34:53;101205.00;;;-5.40
65290;BMP180;51893;59.754;10.110;2022-12-07T09:37:19;101202.40;;;-5.40
65290;BMP180;51893;59.754;10.110;2022-12-07T09:39:46;101203.20;;;-5.40
65290;BMP180;51893;59.754;10.110;2022-12-07T09:42:39;101196.40;;;-5.40
65290;BMP180;51893;59.754;10.110;2022-12-07T09:45:13;101184.60;;;-5.44
65290;BMP180;51893;59.754;10.110;2022-12-07T09:47:40;101175.20;;;-5.50
65290;BMP180;51893;59.754;10.110;2022-12-07T09:50:16;101170.00;;;-5.60
65290;BMP180;51893;59.754;10.110;2022-12-07T09:52:47;101170.00;;;-5.60
65290;BMP180;51893;59.754;10.110;2022-12-07T09:55:31;101174.80;;;-5.60
65290;BMP180;51893;59.754;10.110;2022-12-07T09:57:59;101165.40;;;-5.60
65290;BMP180;51893;59.754;10.110;2022-12-07T10:00:25;101162.00;;;-5.60
65290;BMP180;51893;59.754;10.110;2022-12-07T10:03:01;101157.20;;;-5.60
65290;BMP180;51893;59.754;10.110;2022-12-07T10:05:32;101160.00;;;-5.68
65290;BMP180;51893;59.754;10.110;2022-12-07T10:08:01;101167.20;;;-5.70
65290;BMP180;51893;59.754;10.110;2022-12-07T10:10:33;101159.80;;;-5.76
65290;BMP180;51893;59.754;10.110;2022-12-07T10:13:11;101155.20;;;-5.74
65290;BMP180;51893;59.754;10.110;2022-12-07T10:15:54;101153.80;;;-5.80
65290;BMP180;51893;59.754;10.110;2022-12-07T10:18:38;101160.40;;;-5.80
65290;BMP180;51893;59.754;10.110;2022-12-07T10:21:16;101156.40;;;-5.90
65290;BMP180;51893;59.754;10.110;2022-12-07T10:24:14;101158.00;;;-5.90
65290;BMP180;51893;59.754;10.110;2022-12-07T10:26:51;101158.80;;;-5.90
65290;BMP180;51893;59.754;10.110;2022-12-07T10:29:34;101151.40;;;-5.90
65290;BMP180;51893;59.754;10.110;2022-12-07T10:32:33;101147.40;;;-5.84
65290;BMP180;51893;59.754;10.110;2022-12-07T10:35:28;101139.20;;;-5.80
65290;BMP180;51893;59.754;10.110;2022-12-07T10:37:59;101133.00;;;-5.70
65290;BMP180;51893;59.754;10.110;2022-12-07T10:40:33;101127.60;;;-5.70
65290;BMP180;51893;59.754;10.110;2022-12-07T10:48:49;101130.40;;;-5.64
65290;BMP180;51893;59.754;10.110;2022-12-07T10:54:42;101116.00;;;-5.60
65290;BMP180;51893;59.754;10.110;2022-12-07T10:57:45;101109.80;;;-5.66
65290;BMP180;51893;59.754;10.110;2022-12-07T11:00:25;101107.00;;;-5.60
65290;BMP180;51893;59.754;10.110;2022-12-07T11:03:30;101099.40;;;-5.60
65290;BMP180;51893;59.754;10.110;2022-12-07T11:06:39;101101.40;;;-5.60
65290;BMP180;51893;59.754;10.110;2022-12-07T11:09:37;101097.80;;;-5.48
65290;BMP180;51893;59.754;10.110;2022-12-07T11:15:24;101089.60;;;-5.30
65290;BMP180;51893;59.754;10.110;2022-12-07T11:18:08;101086.00;;;-5.20
65290;BMP180;51893;59.754;10.110;2022-12-07T11:20:59;101076.80;;;-5.10
65290;BMP180;51893;59.754;10.110;2022-12-07T11:23:45;101072.80;;;-5.00
65290;BMP180;51893;59.754;10.110;2022-12-07T11:26:45;101058.20;;;-5.00
65290;BMP180;51893;59.754;10.110;2022-12-07T11:36:00;101049.60;;;-5.00
65290;BMP180;51893;59.754;10.110;2022-12-07T11:38:43;101047.40;;;-4.90
65290;BMP180;51893;59.754;10.110;2022-12-07T11:41:12;101048.00;;;-4.80
65290;BMP180;51893;59.754;10.110;2022-12-07T11:44:07;101045.20;;;-4.70
65290;BMP180;51893;59.754;10.110;2022-12-07T11:46:50;101039.80;;;-4.62
65290;BMP180;51893;59.754;10.110;2022-12-07T11:56:08;101033.80;;;-4.32
65290;BMP180;51893;59.754;10.110;2022-12-07T12:06:42;101027.80;;;-4.20
65290;BMP180;51893;59.754;10.110;2022-12-07T12:09:20;101028.40;;;-4.20
65290;BMP180;51893;59.754;10.110;2022-12-07T12:21:22;101023.40;;;-3.76
65290;BMP180;51893;59.754;10.110;2022-12-07T12:24:22;101018.60;;;-3.66
65290;BMP180;51893;59.754;10.110;2022-12-07T12:26:57;101021.60;;;-3.60
65290;BMP180;51893;59.754;10.110;2022-12-07T12:29:39;101013.80;;;-3.60
65290;BMP180;51893;59.754;10.110;2022-12-07T12:32:38;101011.20;;;-3.54
65290;BMP180;51893;59.754;10.110;2022-12-07T12:35:32;101013.80;;;-3.50
65290;BMP180;51893;59.754;10.110;2022-12-07T12:38:29;101008.00;;;-3.50
65290;BMP180;51893;59.754;10.110;2022-12-07T12:41:01;101008.60;;;-3.50
65290;BMP180;51893;59.754;10.110;2022-12-07T12:43:50;101009.40;;;-3.50
65290;BMP180;51893;59.754;10.110;2022-12-07T12:54:23;100998.60;;;-3.50
65290;BMP180;51893;59.754;10.110;2022-12-07T12:59:38;101004.60;;;-3.40
65290;BMP180;51893;59.754;10.110;2022-12-07T13:05:02;100990.60;;;-3.40
65290;BMP180;51893;59.754;10.110;2022-12-07T13:29:17;100975.20;;;-3.30
65290;BMP180;51893;59.754;10.110;2022-12-07T13:31:57;100974.20;;;-3.30
65290;BMP180;51893;59.754;10.110;2022-12-07T13:34:40;100971.00;;;-3.30
65290;BMP180;51893;59.754;10.110;2022-12-07T13:37:19;100970.60;;;-3.30
65290;BMP180;51893;59.754;10.110;2022-12-07T13:39:57;100970.20;;;-3.30
65290;BMP180;51893;59.754;10.110;2022-12-07T13:42:31;100969.60;;;-3.30
65290;BMP180;51893;59.754;10.110;2022-12-07T13:47:54;100960.60;;;-3.30
65290;BMP180;51893;59.754;10.110;2022-12-07T13:50:32;100954.20;;;-3.22
65290;BMP180;51893;59.754;10.110;2022-12-07T13:53:01;100954.40;;;-3.20
65290;BMP180;51893;59.754;10.110;2022-12-07T13:55:29;100950.60;;;-3.20
65290;BMP180;51893;59.754;10.110;2022-12-07T13:57:56;100950.20;;;-3.20
65290;BMP180;51893;59.754;10.110;2022-12-07T14:00:29;100944.40;;;-3.20
65290;BMP180;51893;59.754;10.110;2022-12-07T14:03:03;100947.20;;;-3.30
65290;BMP180;51893;59.754;10.110;2022-12-07T14:05:34;100945.60;;;-3.30
65290;BMP180;51893;59.754;10.110;2022-12-07T14:08:22;100942.40;;;-3.30
65290;BMP180;51893;59.754;10.110;2022-12-07T14:13:33;100932.60;;;-3.30
65290;BMP180;51893;59.754;10.110;2022-12-07T14:16:27;100936.20;;;-3.30
65290;BMP180;51893;59.754;10.110;2022-12-07T14:18:57;100937.20;;;-3.30
65290;BMP180;51893;59.754;10.110;2022-12-07T14:21:30;100931.60;;;-3.20
65290;BMP180;51893;59.754;10.110;2022-12-07T14:24:16;100943.60;;;-3.30
65290;BMP180;51893;59.754;10.110;2022-12-07T14:26:48;100936.40;;;-3.30
65290;BMP180;51893;59.754;10.110;2022-12-07T14:29:29;100934.60;;;-3.30
65290;BMP180;51893;59.754;10.110;2022-12-07T14:35:09;100929.20;;;-3.30
65290;BMP180;51893;59.754;10.110;2022-12-07T14:37:39;100924.60;;;-3.30
65290;BMP180;51893;59.754;10.110;2022-12-07T14:40:07;100921.40;;;-3.30
65290;BMP180;51893;59.754;10.110;2022-12-07T14:42:40;100917.80;;;-3.30
65290;BMP180;51893;59.754;10.110;2022-12-07T14:45:18;100914.00;;;-3.28
65290;BMP180;51893;59.754;10.110;2022-12-07T14:47:46;100917.40;;;-3.30
65290;BMP180;51893;59.754;10.110;2022-12-07T14:50:43;100912.00;;;-3.30
65290;BMP180;51893;59.754;10.110;2022-12-07T14:53:39;100910.80;;;-3.40
65290;BMP180;51893;59.754;10.110;2022-12-07T14:56:07;100904.40;;;-3.40
65290;BMP180;51893;59.754;10.110;2022-12-07T14:58:34;100900.20;;;-3.48
65290;BMP180;51893;59.754;10.110;2022-12-07T15:01:01;100899.40;;;-3.50
65290;BMP180;51893;59.754;10.110;2022-12-07T15:03:28;100894.60;;;-3.48
65290;BMP180;51893;59.754;10.110;2022-12-07T15:05:55;100890.40;;;-3.48
65290;BMP180;51893;59.754;10.110;2022-12-07T15:08:22;100886.20;;;-3.40
65290;BMP180;51893;59.754;10.110;2022-12-07T15:10:48;100883.80;;;-3.40
65290;BMP180;51893;59.754;10.110;2022-12-07T15:13:16;100884.00;;;-3.40
65290;BMP180;51893;59.754;10.110;2022-12-07T15:16:01;100886.60;;;-3.44
65290;BMP180;51893;59.754;10.110;2022-12-07T15:18:28;100889.80;;;-3.50
65290;BMP180;51893;59.754;10.110;2022-12-07T15:20:54;100887.20;;;-3.50
65290;BMP180;51893;59.754;10.110;2022-12-07T15:23:21;100885.40;;;-3.50
65290;BMP180;51893;59.754;10.110;2022-12-07T15:25:48;100889.40;;;-3.54
65290;BMP180;51893;59.754;10.110;2022-12-07T15:28:16;100889.40;;;-3.58
65290;BMP180;51893;59.754;10.110;2022-12-07T15:30:44;100886.20;;;-3.58
65290;BMP180;51893;59.754;10.110;2022-12-07T15:33:13;100881.40;;;-3.52
65290;BMP180;51893;59.754;10.110;2022-12-07T15:35:42;100880.60;;;-3.60
65290;BMP180;51893;59.754;10.110;2022-12-07T15:38:11;100878.60;;;-3.66
65290;BMP180;51893;59.754;10.110;2022-12-07T15:40:37;100876.20;;;-3.70
65290;BMP180;51893;59.754;10.110;2022-12-07T15:43:04;100869.80;;;-3.70
65290;BMP180;51893;59.754;10.110;2022-12-07T15:45:31;100865.00;;;-3.70
65290;BMP180;51893;59.754;10.110;2022-12-07T15:47:59;100865.80;;;-3.70
65290;BMP180;51893;59.754;10.110;2022-12-07T15:50:46;100862.80;;;-3.74
65290;BMP180;51893;59.754;10.110;2022-12-07T15:53:12;100859.80;;;-3.80
65290;BMP180;51893;59.754;10.110;2022-12-07T15:55:40;100861.60;;;-3.80
65290;BMP180;51893;59.754;10.110;2022-12-07T15:58:07;100854.20;;;-3.80
65290;BMP180;51893;59.754;10.110;2022-12-07T16:00:34;100857.00;;;-3.80
65290;BMP180;51893;59.754;10.110;2022-12-07T16:03:01;100859.80;;;-3.80
65290;BMP180;51893;59.754;10.110;2022-12-07T16:05:28;100860.20;;;-3.80
65290;BMP180;51893;59.754;10.110;2022-12-07T16:07:54;100859.00;;;-3.80
65290;BMP180;51893;59.754;10.110;2022-12-07T16:10:21;100856.20;;;-3.80